createdAt,value
2022-12-07T00:01:24.778Z,10.10
2022-12-07T00:03:54.098Z,10.73
2022-12-07T00:06:21.799Z,8.77
2022-12-07T00:08:48.992Z,13.47
2022-12-07T00:11:19.018Z,10.30
2022-12-07T00:13:46.738Z,10.87
2022-12-07T00:16:16.294Z,9.03
2022-12-07T00:18:44.334Z,9.30
2022-12-07T00:21:23.926Z,10.73
2022-12-07T00:23:52.506Z,12.63
2022-12-07T00:26:28.317Z,10.27
2022-12-07T00:28:58.590Z,10.33
2022-12-07T00:31:29.122Z,10.80
2022-12-07T00:33:56.497Z,9.03
2022-12-07T00:36:27.309Z,9.93
2022-12-07T00:39:00.338Z,8.93
2022-12-07T00:41:30.576Z,9.87
2022-12-07T00:43:57.654Z,7.50
2022-12-07T00:46:25.935Z,10.47
2022-12-07T00:48:53.708Z,11.20
2022-12-07T00:51:22.871Z,10.10
2022-12-07T00:53:49.906Z,10.07
2022-12-07T00:56:22.365Z,9.97
2022-12-07T00:59:00.349Z,9.83
2022-12-07T01:01:30.033Z,8.50
2022-12-07T01:03:57.175Z,8.90
2022-12-07T01:06:24.926Z,8.10
2022-12-07T01:08:52.138Z,7.63
2022-12-07T01:11:21.841Z,10.17
2022-12-07T01:13:51.400Z,8.07
2022-12-07T01:16:18.666Z,7.77
2022-12-07T01:18:49.489Z,9.67
2022-12-07T01:21:22.030Z,8.47
2022-12-07T01:23:50.158Z,7.80
2022-12-07T01:26:20.493Z,7.87
2022-12-07T01:28:47.665Z,7.87
2022-12-07T01:31:17.984Z,8.10
2022-12-07T01:33:47.716Z,8.00
2022-12-07T01:36:25.081Z,8.17
2022-12-07T01:38:57.428Z,7.77
2022-12-07T01:41:27.330Z,7.40
2022-12-07T01:44:12.725Z,7.53
2022-12-07T01:46:40.771Z,7.17
2022-12-07T01:49:11.180Z,6.67
2022-12-07T01:51:39.974Z,8.10
2022-12-07T01:54:07.165Z,7.60
2022-12-07T01:56:34.694Z,8.37
2022-12-07T01:59:02.315Z,8.50
2022-12-07T02:01:29.636Z,10.60
2022-12-07T02:03:57.087Z,10.50
2022-12-07T02:06:26.698Z,9.97
2022-12-07T02:08:54.648Z,9.30
2022-12-07T02:11:22.168Z,11.77
2022-12-07T02:13:49.535Z,10.97
2022-12-07T02:16:48.329Z,9.83
2022-12-07T02:19:41.501Z,9.73
2022-12-07T02:22:33.286Z,9.93
2022-12-07T02:25:09.556Z,10.93
2022-12-07T02:28:00.798Z,10.60
2022-12-07T02:30:32.719Z,10.97
2022-12-07T02:33:11.897Z,10.67
2022-12-07T02:35:45.235Z,11.83
2022-12-07T02:38:39.584Z,9.90
2022-12-07T02:41:12.919Z,9.83
2022-12-07T02:43:44.005Z,10.87
2022-12-07T02:46:15.729Z,11.40
2022-12-07T02:48:44.440Z,11.43
2022-12-07T02:51:11.146Z,11.00
2022-12-07T02:53:43.543Z,11.67
2022-12-07T02:56:32.375Z,12.03
2022-12-07T02:59:09.366Z,12.70
2022-12-07T03:01:42.449Z,12.53
2022-12-07T03:04:41.004Z,12.83
2022-12-07T03:07:17.013Z,11.93
2022-12-07T03:09:53.079Z,11.87
2022-12-07T03:12:29.618Z,12.73
2022-12-07T03:15:11.372Z,13.33
2022-12-07T03:17:43.231Z,12.57
2022-12-07T03:20:17.252Z,14.70
2022-12-07T03:22:46.697Z,13.67
2022-12-07T03:25:16.328Z,13.47
2022-12-07T03:27:53.510Z,12.97
2022-12-07T03:30:29.982Z,16.67
2022-12-07T03:33:04.456Z,14.20
2022-12-07T03:35:44.537Z,15.13
2022-12-07T03:38:26.614Z,13.97
2022-12-07T03:41:03.442Z,13.77
2022-12-07T03:43:31.435Z,12.83
2022-12-07T03:46:10.599Z,14.40
2022-12-07T03:48:47.883Z,14.37
2022-12-07T03:51:25.292Z,15.80
2022-12-07T03:54:06.686Z,14.67
2022-12-07T03:56:34.528Z,14.13
2022-12-07T03:59:01.579Z,15.17
2022-12-07T04:01:28.776Z,12.80
2022-12-07T04:03:55.837Z,13.13
2022-12-07T04:06:22.866Z,11.90
2022-12-07T04:08:49.606Z,12.73
2022-12-07T04:11:16.572Z,11.73
2022-12-07T04:14:02.297Z,12.47
2022-12-07T04:16:29.366Z,14.00
2022-12-07T04:18:56.079Z,12.23
2022-12-07T04:21:22.939Z,12.00
2022-12-07T04:23:49.805Z,10.70
2022-12-07T04:26:16.520Z,12.30
2022-12-07T04:28:43.454Z,9.77
2022-12-07T04:31:10.263Z,11.93
2022-12-07T04:33:37.618Z,11.47
2022-12-07T04:36:04.607Z,11.90
2022-12-07T04:38:31.480Z,10.20
2022-12-07T04:40:58.277Z,10.27
2022-12-07T04:43:25.018Z,10.17
2022-12-07T04:45:52.276Z,10.33
2022-12-07T04:48:19.008Z,10.00
2022-12-07T04:50:48.538Z,10.27
2022-12-07T04:53:15.339Z,11.20
2022-12-07T04:55:42.612Z,9.37
2022-12-07T04:58:09.457Z,10.03
2022-12-07T05:00:36.436Z,11.00
2022-12-07T05:03:03.347Z,13.17
2022-12-07T05:05:30.065Z,13.90
2022-12-07T05:07:57.488Z,11.40
2022-12-07T05:10:24.342Z,12.27
2022-12-07T05:12:51.295Z,11.53
2022-12-07T05:15:18.070Z,13.07
2022-12-07T05:17:44.916Z,11.80
2022-12-07T05:20:12.040Z,12.17
2022-12-07T05:22:39.006Z,13.33
2022-12-07T05:25:05.943Z,12.80
2022-12-07T05:27:35.557Z,13.80
2022-12-07T05:30:02.988Z,13.03
2022-12-07T05:32:29.948Z,14.07
2022-12-07T05:34:56.680Z,14.83
2022-12-07T05:37:23.692Z,12.97
2022-12-07T05:39:50.401Z,13.50
2022-12-07T05:42:18.294Z,13.00
2022-12-07T05:44:46.952Z,15.17
2022-12-07T05:47:14.867Z,15.13
2022-12-07T05:49:41.839Z,14.17
2022-12-07T05:52:09.105Z,15.67
2022-12-07T05:54:35.801Z,14.80
2022-12-07T05:57:02.655Z,15.07
2022-12-07T05:59:30.121Z,16.07
2022-12-07T06:01:59.797Z,15.70
2022-12-07T06:04:29.108Z,15.20
2022-12-07T06:06:55.955Z,15.90
2022-12-07T06:09:24.245Z,16.67
2022-12-07T06:12:09.478Z,15.33
2022-12-07T06:14:36.674Z,13.43
2022-12-07T06:17:03.830Z,13.37
2022-12-07T06:19:31.029Z,14.30
2022-12-07T06:21:58.304Z,15.23
2022-12-07T06:24:25.136Z,16.40
2022-12-07T06:26:52.542Z,14.57
2022-12-07T06:29:20.035Z,16.80
2022-12-07T06:31:46.887Z,12.93
2022-12-07T06:34:17.497Z,14.30
2022-12-07T06:36:44.995Z,12.93
2022-12-07T06:39:12.568Z,13.30
2022-12-07T06:41:40.044Z,11.33
2022-12-07T06:44:07.501Z,12.37
2022-12-07T06:46:36.184Z,11.90
2022-12-07T06:49:03.994Z,12.53
2022-12-07T06:51:30.998Z,12.63
2022-12-07T06:53:58.116Z,14.83
2022-12-07T06:56:24.920Z,11.43
2022-12-07T06:58:51.920Z,12.80
2022-12-07T07:01:19.504Z,11.10
2022-12-07T07:03:47.685Z,10.33
2022-12-07T07:06:16.118Z,10.63
2022-12-07T07:08:43.172Z,9.77
2022-12-07T07:11:10.602Z,8.73
2022-12-07T07:13:37.766Z,8.93
2022-12-07T07:16:05.871Z,9.67
2022-12-07T07:18:32.653Z,9.57
2022-12-07T07:20:59.591Z,9.23
2022-12-07T07:23:26.605Z,9.43
2022-12-07T07:25:54.000Z,9.80
2022-12-07T07:28:20.711Z,10.40
2022-12-07T07:30:47.975Z,10.50
2022-12-07T07:33:15.326Z,10.43
2022-12-07T07:35:42.405Z,11.97
2022-12-07T07:38:09.609Z,9.53
2022-12-07T07:40:36.864Z,8.63
2022-12-07T07:43:03.806Z,7.93
2022-12-07T07:45:30.732Z,8.90
2022-12-07T07:48:00.362Z,8.57
2022-12-07T07:50:27.372Z,8.00
2022-12-07T07:52:54.167Z,8.97
2022-12-07T07:55:20.987Z,7.60
2022-12-07T07:57:54.276Z,9.67
2022-12-07T08:00:22.530Z,8.20
2022-12-07T08:02:49.383Z,8.97
2022-12-07T08:05:16.335Z,7.30
2022-12-07T08:07:43.421Z,7.57
2022-12-07T08:10:13.259Z,8.17
2022-12-07T08:13:02.524Z,8.97
2022-12-07T08:15:31.336Z,9.10
2022-12-07T08:17:58.350Z,8.27
2022-12-07T08:20:25.200Z,7.80
2022-12-07T08:22:52.050Z,7.33
2022-12-07T08:25:19.175Z,8.33
2022-12-07T08:27:46.087Z,7.23
2022-12-07T08:30:13.024Z,8.67
2022-12-07T08:32:40.344Z,8.63
2022-12-07T08:35:07.606Z,9.10
2022-12-07T08:37:34.787Z,8.30
2022-12-07T08:40:02.208Z,8.83
2022-12-07T08:42:30.944Z,10.07
2022-12-07T08:44:58.353Z,9.23
2022-12-07T08:47:26.908Z,9.50
2022-12-07T08:49:55.538Z,10.03
2022-12-07T08:52:23.158Z,9.77
2022-12-07T08:54:50.209Z,8.83
2022-12-07T08:57:17.460Z,8.60
2022-12-07T08:59:44.151Z,9.93
2022-12-07T09:02:11.096Z,10.63
2022-12-07T09:04:37.910Z,9.57
2022-12-07T09:07:05.370Z,9.47
2022-12-07T09:09:32.525Z,9.93
2022-12-07T09:11:59.359Z,8.50
2022-12-07T09:14:26.186Z,10.57
2022-12-07T09:16:53.153Z,9.10
2022-12-07T09:19:19.971Z,10.27
2022-12-07T09:21:46.835Z,10.97
2022-12-07T09:24:14.190Z,10.47
2022-12-07T09:26:41.456Z,9.03
2022-12-07T09:29:08.336Z,8.83
2022-12-07T09:31:37.675Z,9.33
2022-12-07T09:34:05.803Z,9.33
2022-12-07T09:36:32.760Z,9.37
2022-12-07T09:38:59.821Z,10.77
2022-12-07T09:41:28.617Z,9.33
2022-12-07T09:44:03.817Z,8.53
2022-12-07T09:46:35.830Z,7.73
2022-12-07T09:49:03.125Z,6.30
2022-12-07T09:51:29.898Z,6.60
2022-12-07T09:53:58.581Z,6.17
2022-12-07T09:56:26.282Z,8.03
2022-12-07T09:59:01.162Z,7.73
2022-12-07T10:01:35.436Z,5.70
2022-12-07T10:04:24.135Z,7.83
2022-12-07T10:06:52.245Z,7.53
2022-12-07T10:09:23.053Z,11.33
2022-12-07T10:12:12.976Z,6.77
2022-12-07T10:15:09.834Z,7.03
2022-12-07T10:17:45.809Z,6.77
2022-12-07T10:20:15.700Z,8.93
2022-12-07T10:23:06.792Z,7.57
2022-12-07T10:25:39.297Z,7.20
2022-12-07T10:28:08.679Z,6.27
2022-12-07T10:31:00.145Z,5.90
2022-12-07T10:33:50.360Z,7.07
2022-12-07T10:36:23.559Z,7.53
2022-12-07T10:38:54.491Z,6.80
2022-12-07T10:41:21.391Z,8.80
2022-12-07T10:43:54.394Z,8.20
2022-12-07T10:46:33.246Z,6.10
2022-12-07T10:49:12.322Z,8.07
2022-12-07T10:51:52.737Z,6.60
2022-12-07T10:54:35.612Z,6.53
2022-12-07T10:57:27.122Z,8.30
2022-12-07T11:00:02.635Z,7.23
2022-12-07T11:02:49.168Z,7.83
2022-12-07T11:05:36.861Z,5.50
2022-12-07T11:08:17.085Z,6.33
2022-12-07T11:10:58.005Z,7.63
2022-12-07T11:13:38.455Z,7.07
2022-12-07T11:16:22.014Z,8.43
2022-12-07T11:19:17.632Z,7.77
2022-12-07T11:22:07.294Z,6.30
2022-12-07T11:24:54.961Z,5.60
2022-12-07T11:27:33.564Z,8.13
2022-12-07T11:30:09.378Z,8.00
2022-12-07T11:33:05.560Z,7.50
2022-12-07T11:35:37.718Z,6.67
2022-12-07T11:38:19.846Z,7.70
2022-12-07T11:41:13.936Z,8.97
2022-12-07T11:43:55.783Z,7.67
2022-12-07T11:46:28.800Z,7.13
2022-12-07T11:49:34.595Z,9.03
2022-12-07T11:52:04.992Z,8.20
2022-12-07T11:54:41.882Z,7.03
2022-12-07T11:57:21.503Z,8.50
2022-12-07T11:59:53.335Z,8.97
2022-12-07T12:02:37.239Z,8.67
2022-12-07T12:05:12.918Z,7.23
2022-12-07T12:11:03.597Z,7.90
2022-12-07T12:17:12.575Z,7.90
2022-12-07T12:20:17.556Z,7.60
2022-12-07T12:22:49.922Z,6.87
2022-12-07T12:25:22.853Z,7.60
2022-12-07T12:27:51.446Z,6.77
2022-12-07T12:30:39.548Z,8.70
2022-12-07T12:33:31.079Z,7.30
2022-12-07T12:36:21.612Z,6.03
2022-12-07T12:39:00.250Z,6.37
2022-12-07T12:41:39.486Z,8.83
2022-12-07T12:44:15.363Z,6.83
2022-12-07T12:46:54.479Z,5.10
2022-12-07T12:49:21.143Z,5.77
2022-12-07T12:51:52.457Z,4.27
2022-12-07T12:54:19.282Z,4.73
2022-12-07T12:57:17.910Z,2.63
2022-12-07T12:59:54.041Z,3.23
2022-12-07T13:02:34.741Z,3.37
2022-12-07T13:05:22.263Z,4.70
2022-12-07T13:07:54.648Z,4.63
2022-12-07T13:10:24.235Z,2.70
2022-12-07T13:13:26.581Z,3.97
2022-12-07T13:16:13.285Z,6.00
2022-12-07T13:18:40.224Z,9.10
2022-12-07T13:21:10.282Z,14.73
2022-12-07T13:23:58.947Z,10.07
2022-12-07T13:26:31.919Z,7.37
2022-12-07T13:29:10.744Z,4.80
2022-12-07T13:31:38.818Z,5.90
2022-12-07T13:34:26.721Z,5.70
2022-12-07T13:36:53.621Z,6.10
2022-12-07T13:39:23.896Z,5.40
2022-12-07T13:41:58.743Z,6.07
2022-12-07T13:44:27.775Z,4.80
2022-12-07T13:47:19.136Z,6.53
2022-12-07T13:49:57.119Z,5.67
2022-12-07T13:52:29.418Z,5.10
2022-12-07T13:55:00.492Z,6.17
2022-12-07T13:57:31.415Z,4.60
2022-12-07T13:59:59.487Z,5.27
2022-12-07T14:02:34.957Z,4.37
2022-12-07T14:05:23.510Z,5.30
2022-12-07T14:08:22.394Z,6.73
2022-12-07T14:10:52.015Z,6.30
2022-12-07T14:13:40.310Z,4.53
2022-12-07T14:16:20.115Z,3.27
2022-12-07T14:18:47.243Z,4.77
2022-12-07T14:21:14.047Z,3.97
2022-12-07T14:23:41.613Z,4.70
2022-12-07T14:26:12.962Z,4.97
2022-12-07T14:28:40.307Z,5.80
2022-12-07T14:31:21.289Z,6.63
2022-12-07T14:33:49.710Z,6.37
2022-12-07T14:36:16.746Z,9.83
2022-12-07T14:38:43.559Z,10.23
2022-12-07T14:41:37.575Z,9.57
2022-12-07T14:44:32.435Z,12.07
2022-12-07T14:49:46.391Z,12.20
2022-12-07T14:55:06.220Z,8.90
2022-12-07T14:57:33.374Z,7.57
2022-12-07T15:00:00.163Z,6.10
2022-12-07T15:02:27.005Z,7.47
2022-12-07T15:04:53.768Z,4.47
2022-12-07T15:07:22.348Z,5.00
2022-12-07T15:09:49.895Z,4.43
2022-12-07T15:12:16.755Z,7.33
2022-12-07T15:14:43.478Z,5.50
2022-12-07T15:17:24.736Z,4.73
2022-12-07T15:19:54.914Z,4.03
2022-12-07T15:22:21.681Z,5.40
2022-12-07T15:24:48.564Z,5.63
2022-12-07T15:27:15.277Z,4.50
2022-12-07T15:29:42.014Z,6.50
2022-12-07T15:32:08.879Z,5.03
2022-12-07T15:34:39.972Z,4.90
2022-12-07T15:37:08.116Z,5.97
2022-12-07T15:39:37.133Z,4.17
2022-12-07T15:42:04.337Z,5.60
2022-12-07T15:44:49.571Z,3.73
2022-12-07T15:47:16.249Z,3.63
2022-12-07T15:49:43.537Z,6.03
2022-12-07T15:52:10.472Z,4.40
2022-12-07T15:54:37.466Z,4.80
2022-12-07T15:57:04.163Z,5.20
2022-12-07T15:59:31.405Z,7.53
2022-12-07T16:01:58.291Z,7.63
2022-12-07T16:04:25.481Z,5.37
2022-12-07T16:06:52.278Z,6.30
2022-12-07T16:09:19.595Z,6.63
2022-12-07T16:11:46.458Z,5.70
2022-12-07T16:14:13.500Z,7.07
2022-12-07T16:16:41.304Z,5.70
2022-12-07T16:19:09.418Z,6.57
2022-12-07T16:21:36.760Z,6.13
2022-12-07T16:24:04.549Z,7.60
2022-12-07T16:26:31.589Z,7.27
2022-12-07T16:28:58.653Z,10.27
2022-12-07T16:31:27.917Z,8.57
2022-12-07T16:33:57.092Z,9.20
2022-12-07T16:36:55.032Z,10.63
2022-12-07T16:39:13.351Z,13.20
2022-12-07T16:41:40.311Z,11.77
2022-12-07T16:44:10.766Z,11.43
2022-12-07T16:46:38.064Z,13.07
2022-12-07T16:49:05.194Z,12.07
2022-12-07T16:51:32.562Z,10.73
2022-12-07T16:53:59.679Z,9.67
2022-12-07T16:56:27.690Z,9.10
2022-12-07T16:58:55.675Z,9.27
2022-12-07T17:01:29.015Z,10.57
2022-12-07T17:03:57.890Z,10.13
2022-12-07T17:06:27.081Z,10.27
2022-12-07T17:08:54.337Z,12.53
2022-12-07T17:11:29.968Z,10.63
2022-12-07T17:14:15.431Z,9.43
2022-12-07T17:16:42.906Z,8.20
2022-12-07T17:19:13.149Z,8.13
2022-12-07T17:21:41.344Z,8.93
2022-12-07T17:24:10.603Z,8.37
2022-12-07T17:26:38.417Z,7.50
2022-12-07T17:29:07.165Z,6.60
2022-12-07T17:31:34.079Z,10.03
2022-12-07T17:34:01.617Z,7.10
2022-12-07T17:36:30.504Z,8.43
2022-12-07T17:38:57.980Z,9.67
2022-12-07T17:41:46.698Z,8.60
2022-12-07T17:47:17.991Z,9.23
2022-12-07T17:49:48.092Z,9.90
2022-12-07T17:52:34.011Z,12.70
2022-12-07T17:55:01.067Z,10.67
2022-12-07T17:57:28.199Z,8.70
2022-12-07T17:59:55.615Z,8.07
2022-12-07T18:02:22.264Z,10.03
2022-12-07T18:04:49.000Z,8.70
2022-12-07T18:07:15.837Z,7.50
2022-12-07T18:09:43.319Z,9.47
2022-12-07T18:12:10.416Z,10.23
2022-12-07T18:14:37.486Z,10.63
2022-12-07T18:17:04.287Z,9.57
2022-12-07T18:19:31.212Z,9.03
2022-12-07T18:21:58.327Z,44.23
2022-12-07T18:24:25.019Z,38.07
2022-12-07T18:26:53.253Z,17.57
2022-12-07T18:29:20.915Z,16.33
2022-12-07T18:31:48.117Z,14.13
2022-12-07T18:34:17.537Z,9.47
2022-12-07T18:36:46.772Z,9.07
2022-12-07T18:39:15.485Z,7.57
2022-12-07T18:41:42.819Z,8.20
2022-12-07T18:44:10.305Z,8.40
2022-12-07T18:46:38.074Z,7.97
2022-12-07T18:49:05.047Z,8.20
2022-12-07T18:51:32.648Z,7.93
2022-12-07T18:54:01.355Z,6.83
2022-12-07T18:56:28.967Z,9.97
2022-12-07T18:59:19.564Z,9.97
2022-12-07T19:01:49.124Z,9.30
2022-12-07T19:04:17.066Z,8.93
2022-12-07T19:06:46.175Z,9.47
2022-12-07T19:09:14.684Z,9.50
2022-12-07T19:11:51.918Z,10.13
2022-12-07T19:14:29.257Z,8.67
2022-12-07T19:17:02.857Z,9.50
2022-12-07T19:19:49.027Z,7.80
2022-12-07T19:22:18.706Z,7.97
2022-12-07T19:24:48.380Z,7.30
2022-12-07T19:27:16.350Z,8.97
2022-12-07T19:29:44.472Z,7.47
2022-12-07T19:32:12.006Z,8.70
2022-12-07T19:34:41.171Z,6.83
2022-12-07T19:37:09.395Z,6.50
2022-12-07T19:39:36.277Z,6.63
2022-12-07T19:42:03.494Z,8.13
2022-12-07T19:44:30.475Z,10.07
2022-12-07T19:47:04.643Z,10.87
2022-12-07T19:49:34.234Z,8.17
2022-12-07T19:52:06.947Z,9.47
2022-12-07T19:54:35.473Z,9.57
2022-12-07T19:57:04.316Z,8.87
2022-12-07T19:59:31.930Z,7.70
2022-12-07T20:01:58.767Z,7.53
2022-12-07T20:04:28.682Z,9.50
2022-12-07T20:06:58.258Z,9.67
2022-12-07T20:09:25.395Z,8.03
2022-12-07T20:12:11.358Z,9.10
2022-12-07T20:14:38.810Z,9.27
2022-12-07T20:17:05.850Z,8.23
2022-12-07T20:19:35.098Z,8.67
2022-12-07T20:22:01.724Z,11.70
2022-12-07T20:24:28.430Z,10.90
2022-12-07T20:26:55.518Z,8.40
2022-12-07T20:29:24.251Z,8.13
2022-12-07T20:31:52.939Z,9.17
2022-12-07T20:34:20.341Z,7.87
2022-12-07T20:36:47.166Z,7.90
2022-12-07T20:39:14.615Z,9.93
2022-12-07T20:42:00.799Z,7.90
2022-12-07T20:44:27.904Z,8.87
2022-12-07T20:46:54.812Z,8.97
2022-12-07T20:49:21.961Z,7.50
2022-12-07T20:51:48.672Z,8.03
2022-12-07T20:54:15.732Z,10.10
2022-12-07T20:56:42.762Z,7.30
2022-12-07T20:59:14.164Z,8.27
2022-12-07T21:01:41.349Z,8.57
2022-12-07T21:04:08.333Z,6.73
2022-12-07T21:06:35.628Z,8.90
2022-12-07T21:09:02.438Z,8.27
2022-12-07T21:11:31.638Z,9.57
2022-12-07T21:13:58.439Z,9.67
2022-12-07T21:16:30.273Z,11.33
2022-12-07T21:19:02.243Z,10.93
2022-12-07T21:21:30.031Z,8.67
2022-12-07T21:24:01.775Z,9.90
2022-12-07T21:26:30.002Z,10.43
2022-12-07T21:28:57.267Z,14.33
2022-12-07T21:31:24.212Z,11.30
2022-12-07T21:33:51.232Z,10.90
2022-12-07T21:36:21.348Z,11.03
2022-12-07T21:38:49.592Z,10.67
2022-12-07T21:41:22.419Z,10.50
2022-12-07T21:43:50.180Z,12.63
2022-12-07T21:46:18.701Z,11.40
2022-12-07T21:48:54.542Z,11.70
2022-12-07T21:51:22.930Z,11.20
2022-12-07T21:53:51.761Z,10.90
2022-12-07T21:56:25.123Z,11.63
2022-12-07T21:58:53.209Z,10.73
2022-12-07T22:01:26.009Z,11.43
2022-12-07T22:03:53.866Z,10.20
2022-12-07T22:06:25.594Z,11.50
2022-12-07T22:08:53.298Z,10.07
2022-12-07T22:11:20.581Z,11.50
2022-12-07T22:14:10.272Z,12.30
2022-12-07T22:16:39.156Z,10.03
2022-12-07T22:19:06.912Z,9.83
2022-12-07T22:21:34.368Z,10.93
2022-12-07T22:24:01.669Z,10.03
2022-12-07T22:26:28.607Z,12.07
2022-12-07T22:28:55.585Z,10.73
2022-12-07T22:31:22.808Z,12.00
2022-12-07T22:33:50.283Z,10.97
2022-12-07T22:36:18.135Z,10.10
2022-12-07T22:38:45.723Z,10.67
2022-12-07T22:41:33.153Z,9.47
2022-12-07T22:44:00.899Z,10.93
2022-12-07T22:46:27.954Z,10.83
2022-12-07T22:48:55.331Z,11.83
2022-12-07T22:51:23.242Z,9.97
2022-12-07T22:53:50.828Z,12.93
2022-12-07T22:56:18.150Z,8.47
2022-12-07T22:58:45.485Z,10.80
2022-12-07T23:01:14.845Z,10.63
2022-12-07T23:03:42.050Z,10.13
2022-12-07T23:06:12.697Z,8.90
2022-12-07T23:08:39.348Z,10.90
2022-12-07T23:11:10.694Z,8.97
2022-12-07T23:13:38.089Z,11.07
2022-12-07T23:16:15.308Z,10.50
2022-12-07T23:18:42.546Z,11.87
2022-12-07T23:21:09.488Z,9.93
2022-12-07T23:23:36.315Z,10.53
2022-12-07T23:26:07.843Z,11.27
2022-12-07T23:28:35.652Z,9.43
2022-12-07T23:31:06.747Z,9.00
2022-12-07T23:33:33.720Z,8.83
2022-12-07T23:36:15.774Z,11.17
2022-12-07T23:38:44.224Z,9.80
2022-12-07T23:41:14.209Z,9.17
2022-12-07T23:43:42.221Z,9.10
2022-12-07T23:46:11.784Z,9.57
2022-12-07T23:48:39.528Z,8.33
2022-12-07T23:51:07.417Z,9.80
2022-12-07T23:53:35.731Z,10.13
2022-12-07T23:56:02.918Z,10.33
2022-12-07T23:58:29.941Z,12.93
